Time;durP1;ratioP1;P1;durP2;ratioP2;P2;SDS_P1;SDS_P2;PMS_P1;PMS_P2;Temp;Humidity;BMP_temperature;BMP_pressure;BME280_temperature;BME280_humidity;BME280_pressure;Samples;Min_cycle;Max_cycle;Signal;HPM_P1;HPM_P2
2021/01/04 00:02:03;;;;;;;54.58;30.85;;;;;;;2.09;82.26;98608.72;2111468;84;21270;-93
2021/01/04 00:05:08;;;;;;;57.33;31.12;;;;;;;2.15;82.34;98598.36;2111320;84;21147;-93
2021/01/04 00:08:09;;;;;;;57.95;31.42;;;;;;;2.18;82.30;98588.58;2111064;84;21158;-92
2021/01/04 00:11:11;;;;;;;59.70;32.45;;;;;;;2.22;82.38;98587.86;2081521;84;21194;-92
2021/01/04 00:14:12;;;;;;;51.75;27.87;;;;;;;2.23;82.44;98577.87;2073751;86;21315;-92
2021/01/04 00:17:13;;;;;;;49.98;28.95;;;;;;;2.18;82.21;98578.24;2057901;84;21175;-92
2021/01/04 00:20:15;;;;;;;51.98;31.65;;;;;;;2.11;82.19;98581.02;2072566;86;21620;-94
2021/01/04 00:23:16;;;;;;;48.68;29.07;;;;;;;2.09;82.42;98582.89;2072096;86;21292;-94
2021/01/04 00:26:18;;;;;;;48.87;28.20;;;;;;;2.16;82.59;98596.13;2074009;84;21772;-92
2021/01/04 00:29:20;;;;;;;54.73;31.52;;;;;;;2.15;82.60;98588.03;2072997;86;21301;-93
2021/01/04 00:32:21;;;;;;;58.40;32.65;;;;;;;2.17;82.75;98584.84;2098759;84;21176;-94
2021/01/04 00:35:23;;;;;;;57.25;32.28;;;;;;;2.18;82.88;98587.76;2072016;84;21196;-92
2021/01/04 00:38:24;;;;;;;52.80;29.77;;;;;;;2.19;82.83;98575.19;2058065;83;21115;-89
2021/01/04 00:41:26;;;;;;;52.50;31.85;;;;;;;2.11;83.27;98581.02;2101827;82;21142;-91
2021/01/04 00:44:27;;;;;;;57.62;32.83;;;;;;;2.09;82.89;98593.23;2076081;82;21304;-91
2021/01/04 00:47:29;;;;;;;61.02;32.60;;;;;;;2.13;83.19;98595.09;2072478;86;21313;-94
2021/01/04 00:50:30;;;;;;;53.25;29.95;;;;;;;2.17;83.00;98591.30;2074373;85;21114;-93
2021/01/04 00:53:32;;;;;;;48.78;25.72;;;;;;;2.11;82.90;98595.23;2073970;85;21311;-93
2021/01/04 00:56:33;;;;;;;55.03;31.12;;;;;;;2.03;82.94;98596.34;2072973;86;21198;-94
2021/01/04 00:59:35;;;;;;;54.95;30.77;;;;;;;1.96;82.97;98597.80;2076839;83;21273;-91
2021/01/04 01:02:36;;;;;;;56.40;31.25;;;;;;;1.92;83.05;98608.02;2075457;82;21142;-91
2021/01/04 01:05:41;;;;;;;56.35;31.30;;;;;;;2.00;83.31;98605.61;2041858;83;21186;-91
2021/01/04 01:08:43;;;;;;;50.20;29.72;;;;;;;2.07;83.27;98599.00;2045698;85;21437;-94
2021/01/04 01:11:44;;;;;;;58.33;32.80;;;;;;;2.09;83.19;98598.87;2070540;86;21241;-94
2021/01/04 01:14:46;;;;;;;67.22;35.58;;;;;;;2.14;83.38;98599.31;2071466;86;21180;-94
2021/01/04 01:17:47;;;;;;;63.10;36.13;;;;;;;2.19;83.22;98598.44;2082072;84;21118;-93
2021/01/04 01:20:49;;;;;;;60.58;35.68;;;;;;;2.21;83.27;98594.80;2037665;86;21170;-93
2021/01/04 01:23:50;;;;;;;60.78;32.90;;;;;;;2.23;83.08;98590.31;2067703;86;21150;-93
2021/01/04 01:26:51;;;;;;;60.33;33.70;;;;;;;2.30;83.11;98589.80;2052958;86;21195;-93
2021/01/04 01:29:53;;;;;;;56.88;30.45;;;;;;;2.35;83.04;98582.46;2037724;87;21169;-94
2021/01/04 01:32:55;;;;;;;66.57;37.00;;;;;;;2.35;82.88;98585.05;2045052;86;21574;-93
2021/01/04 01:35:56;;;;;;;66.42;39.58;;;;;;;2.28;82.77;98585.55;2068505;86;21140;-94
2021/01/04 01:38:58;;;;;;;51.05;31.00;;;;;;;2.20;82.86;98590.58;2047782;86;21185;-94
2021/01/04 01:41:59;;;;;;;53.17;30.60;;;;;;;2.08;82.86;98580.44;2029143;87;21177;-93
2021/01/04 01:45:00;;;;;;;65.37;37.93;;;;;;;2.06;83.36;98581.05;2070045;86;21278;-94
2021/01/04 01:48:02;;;;;;;57.30;33.63;;;;;;;1.99;83.08;98581.55;2042199;86;21607;-93
2021/01/04 01:51:03;;;;;;;60.50;35.92;;;;;;;1.98;83.20;98579.11;1980993;90;21341;-93
2021/01/04 01:54:05;;;;;;;62.27;37.33;;;;;;;1.95;83.28;98575.50;2029070;87;21179;-93
2021/01/04 01:57:06;;;;;;;64.67;36.58;;;;;;;1.95;83.40;98571.62;2075067;86;21342;-94
2021/01/04 02:00:08;;;;;;;56.68;34.65;;;;;;;1.92;83.37;98571.42;2074962;86;21349;-94
2021/01/04 02:03:09;;;;;;;68.17;37.48;;;;;;;1.89;83.49;98577.30;2050943;86;21190;-94
2021/01/04 02:06:14;;;;;;;64.77;39.20;;;;;;;1.83;83.43;98579.94;2025341;87;21566;-93
2021/01/04 02:09:16;;;;;;;59.42;34.53;;;;;;;1.77;83.31;98576.56;2004918;89;21167;-92
2021/01/04 02:12:18;;;;;;;55.12;35.03;;;;;;;1.65;83.35;98570.66;2097495;84;21229;-93
2021/01/04 02:15:20;;;;;;;68.60;36.98;;;;;;;1.60;83.59;98571.97;2106140;84;21288;-93
2021/01/04 02:18:21;;;;;;;58.70;35.17;;;;;;;1.49;83.51;98572.03;2078677;86;21181;-93
2021/01/04 02:21:23;;;;;;;55.83;34.15;;;;;;;1.40;83.53;98583.45;2095812;84;21285;-94
2021/01/04 02:24:25;;;;;;;72.42;39.60;;;;;;;1.30;83.63;98585.61;2086392;84;21284;-92
2021/01/04 02:27:27;;;;;;;65.22;36.95;;;;;;;1.24;83.87;98584.34;2075289;86;21613;-93
2021/01/04 02:30:28;;;;;;;56.23;34.38;;;;;;;1.23;83.89;98574.15;2075888;86;21327;-93
2021/01/04 02:33:30;;;;;;;54.88;33.58;;;;;;;1.27;84.00;98583.27;2071481;86;21326;-91
2021/01/04 02:36:31;;;;;;;58.98;32.20;;;;;;;1.23;83.89;98589.63;2068578;86;21192;-92
2021/01/04 02:39:33;;;;;;;63.00;35.78;;;;;;;1.13;83.99;98581.34;2068765;86;21331;-93
2021/01/04 02:42:35;;;;;;;60.12;34.27;;;;;;;1.14;84.13;98589.89;2070309;84;21159;-94
2021/01/04 02:45:37;;;;;;;61.90;37.20;;;;;;;1.11;84.15;98590.14;2075504;86;21169;-92
2021/01/04 02:48:38;;;;;;;58.52;34.50;;;;;;;1.15;84.12;98600.55;2075599;86;21222;-93
2021/01/04 02:51:40;;;;;;;52.53;31.30;;;;;;;1.13;84.50;98601.97;2043516;86;21188;-93
2021/01/04 02:54:41;;;;;;;53.65;29.80;;;;;;;1.16;84.42;98602.66;2069901;86;22204;-93
2021/01/04 02:57:43;;;;;;;48.90;28.50;;;;;;;1.12;84.17;98602.91;2071091;86;21279;-94
2021/01/04 03:00:44;;;;;;;55.55;30.25;;;;;;;1.08;84.26;98601.97;2073438;86;21734;-92
2021/01/04 03:03:46;;;;;;;56.30;31.60;;;;;;;0.99;84.50;98594.50;2069641;86;21732;-93
2021/01/04 03:06:48;;;;;;;54.67;30.97;;;;;;;1.00;84.68;98586.29;2075761;86;21338;-92
2021/01/04 03:09:50;;;;;;;51.75;30.00;;;;;;;1.05;84.94;98590.16;2075777;86;21150;-91
2021/01/04 03:12:52;;;;;;;51.30;29.52;;;;;;;1.08;84.82;98600.69;2075388;86;21198;-93
2021/01/04 03:15:53;;;;;;;55.50;28.75;;;;;;;1.14;85.14;98598.92;2075714;86;21165;-93
2021/01/04 03:18:54;;;;;;;51.70;28.98;;;;;;;1.18;84.93;98601.59;2084218;84;21258;-94
2021/01/04 03:21:56;;;;;;;51.28;28.90;;;;;;;1.19;84.86;98607.56;2098916;84;21201;-93
2021/01/04 03:24:58;;;;;;;51.95;28.90;;;;;;;1.20;84.91;98610.52;2072868;86;21559;-93
2021/01/04 03:28:00;;;;;;;54.30;32.75;;;;;;;1.20;85.03;98609.23;2098448;84;21757;-94
2021/01/04 03:31:01;;;;;;;48.65;29.35;;;;;;;1.21;85.12;98605.70;2111108;84;21139;-93
2021/01/04 03:34:02;;;;;;;48.70;27.45;;;;;;;1.24;85.29;98606.27;2111007;84;21139;-94
2021/01/04 03:37:04;;;;;;;53.38;27.22;;;;;;;1.27;85.11;98605.19;2074176;84;21212;-94
2021/01/04 03:40:05;;;;;;;51.98;28.87;;;;;;;1.24;85.12;98611.89;2072870;86;21455;-93
2021/01/04 03:43:07;;;;;;;56.70;30.35;;;;;;;1.26;85.11;98610.00;2076620;84;21133;-90
2021/01/04 03:46:09;;;;;;;54.93;29.32;;;;;;;1.26;85.20;98608.72;2076975;85;21154;-90
2021/01/04 03:49:10;;;;;;;47.10;27.37;;;;;;;1.28;85.28;98611.54;2041785;85;21277;-90
2021/01/04 03:52:12;;;;;;;50.73;29.48;;;;;;;1.28;85.34;98623.59;2054529;86;21571;-94
2021/01/04 03:55:13;;;;;;;51.77;30.55;;;;;;;1.28;85.47;98623.15;2072845;86;21292;-94
2021/01/04 03:58:14;;;;;;;49.70;29.85;;;;;;;1.30;85.41;98623.02;2072867;86;21177;-94
2021/01/04 04:01:16;;;;;;;57.95;31.15;;;;;;;1.29;85.33;98622.20;2072858;86;21186;-92
2021/01/04 04:04:17;;;;;;;52.78;31.40;;;;;;;1.27;85.27;98625.83;2099037;82;21110;-90
2021/01/04 04:07:22;;;;;;;50.75;30.35;;;;;;;1.29;85.35;98627.36;2077333;84;21110;-90
2021/01/04 04:10:24;;;;;;;50.78;29.40;;;;;;;1.33;85.24;98624.05;2077301;84;21402;-91
2021/01/04 04:13:25;;;;;;;49.88;28.55;;;;;;;1.37;85.27;98624.14;2075509;85;21260;-93
2021/01/04 04:16:27;;;;;;;57.95;29.80;;;;;;;1.42;85.11;98622.84;2072809;86;21312;-93
2021/01/04 04:19:28;;;;;;;52.25;29.50;;;;;;;1.41;84.93;98631.53;2073042;84;21185;-93
2021/01/04 04:22:30;;;;;;;55.88;30.35;;;;;;;1.33;84.88;98628.73;2076682;85;21331;-93
2021/01/04 04:25:33;;;;;;;48.95;29.40;;;;;;;1.31;84.91;98626.77;2085200;85;21775;-92
2021/01/04 04:28:34;;;;;;;51.98;29.77;;;;;;;1.30;84.99;98632.05;2082175;85;21300;-92
2021/01/04 04:31:36;;;;;;;50.55;28.02;;;;;;;1.29;84.95;98635.10;2067722;85;21339;-93
2021/01/04 04:34:37;;;;;;;54.08;30.62;;;;;;;1.19;84.91;98641.94;2045338;87;21179;-94
2021/01/04 04:37:39;;;;;;;46.95;29.87;;;;;;;1.17;85.32;98640.40;2045791;87;21303;-93
2021/01/04 04:40:40;;;;;;;65.05;35.68;;;;;;;1.22;85.33;98638.28;2046817;86;21640;-93
2021/01/04 04:43:41;;;;;;;62.73;33.28;;;;;;;1.11;84.96;98632.23;2074072;85;21590;-92
2021/01/04 04:46:43;;;;;;;56.77;34.27;;;;;;;1.02;84.92;98626.51;2083451;85;21133;-92
2021/01/04 04:49:44;;;;;;;50.78;31.85;;;;;;;1.02;85.12;98630.84;2082308;85;21343;-92
2021/01/04 04:52:46;;;;;;;56.83;32.20;;;;;;;1.07;85.24;98633.86;2082790;85;21783;-93
2021/01/04 04:55:47;;;;;;;57.38;33.55;;;;;;;1.13;85.14;98630.34;2090366;85;21145;-91
2021/01/04 04:58:50;;;;;;;73.78;38.02;;;;;;;1.14;84.92;98634.55;2072605;85;21193;-91
2021/01/04 05:01:52;;;;;;;80.07;42.80;;;;;;;1.13;85.00;98634.20;2091865;85;21150;-91
2021/01/04 05:04:53;;;;;;;79.12;41.73;;;;;;;1.13;85.12;98635.50;2089751;85;21288;-94
2021/01/04 05:07:55;;;;;;;70.50;37.88;;;;;;;1.20;85.08;98644.86;2087348;85;21189;-94
2021/01/04 05:10:56;;;;;;;72.37;36.65;;;;;;;1.27;84.94;98657.59;2087184;85;21154;-94
2021/01/04 05:13:58;;;;;;;62.45;33.60;;;;;;;1.27;85.02;98665.81;2082562;85;21724;-94
2021/01/04 05:16:59;;;;;;;61.83;31.62;;;;;;;1.32;85.08;98659.83;2081975;85;21627;-94
2021/01/04 05:20:01;;;;;;;56.53;30.80;;;;;;;1.31;85.02;98664.64;2083320;85;21268;-94
2021/01/04 05:23:02;;;;;;;58.40;31.95;;;;;;;1.27;84.99;98667.09;2073808;85;21728;-93
2021/01/04 05:26:04;;;;;;;64.32;32.75;;;;;;;1.23;85.00;98674.27;2072572;86;21293;-93
2021/01/04 05:29:05;;;;;;;49.48;28.83;;;;;;;1.21;84.99;98668.42;2072977;86;21288;-94
2021/01/04 05:32:07;;;;;;;50.43;30.05;;;;;;;1.22;85.14;98664.90;2067040;84;21316;-94
2021/01/04 05:35:09;;;;;;;53.20;30.00;;;;;;;1.25;85.24;98660.78;2036645;87;21341;-94
2021/01/04 05:38:10;;;;;;;51.60;29.25;;;;;;;1.33;85.31;98662.75;2073348;84;21709;-94
2021/01/04 05:41:12;;;;;;;52.43;28.73;;;;;;;1.32;85.14;98651.61;2034089;88;21209;-93
2021/01/04 05:44:13;;;;;;;56.20;30.30;;;;;;;1.27;85.01;98667.91;2004289;88;21255;-93
2021/01/04 05:47:15;;;;;;;51.80;29.95;;;;;;;1.21;84.97;98662.45;2018314;88;21293;-95
2021/01/04 05:50:17;;;;;;;45.40;27.40;;;;;;;1.20;85.20;98653.89;2071816;85;21162;-93
2021/01/04 05:53:19;;;;;;;47.55;27.10;;;;;;;1.22;85.11;98657.63;2073617;86;21172;-94
2021/01/04 05:56:21;;;;;;;51.60;28.95;;;;;;;1.17;85.08;98655.88;2071631;86;21176;-93
2021/01/04 05:59:23;;;;;;;53.50;29.15;;;;;;;1.18;85.43;98647.19;2071288;86;21287;-94
2021/01/04 06:02:24;;;;;;;52.78;31.05;;;;;;;1.24;85.48;98644.14;2071245;86;21339;-94
2021/01/04 06:05:26;;;;;;;55.85;31.55;;;;;;;1.25;85.06;98647.06;2071551;85;21164;-92
2021/01/04 06:08:27;;;;;;;47.67;29.72;;;;;;;1.23;84.92;98646.38;2079982;84;21150;-93
2021/01/04 06:11:30;;;;;;;54.48;29.45;;;;;;;1.09;84.79;98639.24;2034335;88;21210;-94
2021/01/04 06:14:31;;;;;;;55.17;30.25;;;;;;;0.92;84.78;98641.06;2034289;87;21151;-94
2021/01/04 06:17:33;;;;;;;64.80;41.37;;;;;;;0.85;84.81;98634.27;2035483;86;21142;-94
2021/01/04 06:20:34;;;;;;;97.37;58.60;;;;;;;0.73;84.75;98638.26;2053341;86;21590;-93
2021/01/04 06:23:36;;;;;;;90.12;55.50;;;;;;;0.65;85.14;98635.48;2068479;86;21194;-93
2021/01/04 06:26:37;;;;;;;87.33;55.73;;;;;;;0.69;85.10;98641.55;2053724;86;21168;-93
2021/01/04 06:29:38;;;;;;;85.65;49.75;;;;;;;0.70;85.26;98635.46;2042432;86;21306;-90
2021/01/04 06:32:40;;;;;;;83.47;47.95;;;;;;;0.70;85.13;98641.09;2033390;87;21174;-91
2021/01/04 06:35:41;;;;;;;74.35;42.40;;;;;;;0.59;85.08;98639.81;2030531;87;21687;-92
2021/01/04 06:38:43;;;;;;;113.57;56.23;;;;;;;0.53;85.30;98629.50;2034888;87;21598;-91
2021/01/04 06:41:45;;;;;;;168.65;71.00;;;;;;;0.53;85.44;98630.31;2036885;86;21150;-88
2021/01/04 06:44:46;;;;;;;127.02;64.77;;;;;;;0.53;85.30;98626.92;2077819;86;21168;-87
2021/01/04 06:47:54;;;;;;;117.00;65.28;;;;;;;0.58;85.32;98635.60;2095734;81;21244;-87
2021/01/04 06:51:01;;;;;;;117.53;59.75;;;;;;;0.53;85.14;98654.80;2117887;81;21456;-91
2021/01/04 06:54:12;;;;;;;79.62;42.80;;;;;;;0.53;85.36;98653.50;2049031;87;21227;-89
2021/01/04 06:57:20;;;;;;;77.95;42.10;;;;;;;0.51;85.16;98664.41;2049957;87;21295;-89
2021/01/04 07:00:29;;;;;;;74.45;41.42;;;;;;;0.50;85.10;98668.39;2075061;84;21201;-89
2021/01/04 07:03:38;;;;;;;84.35;47.45;;;;;;;0.53;85.44;98664.28;2086666;84;21622;-88
2021/01/04 07:06:48;;;;;;;79.27;45.67;;;;;;;0.63;85.31;98652.33;2082431;86;21308;-88
2021/01/04 07:09:51;;;;;;;104.43;59.35;;;;;;;0.70;85.17;98654.79;2085372;84;21333;-88
2021/01/04 07:12:55;;;;;;;90.22;51.08;;;;;;;0.70;84.98;98662.99;2058278;84;21784;-89
2021/01/04 07:16:00;;;;;;;72.78;42.20;;;;;;;0.68;85.11;98679.05;2095515;81;21157;-87
2021/01/04 07:19:04;;;;;;;50.05;30.17;;;;;;;0.67;84.87;98687.25;2079992;83;21130;-87
2021/01/04 07:22:05;;;;;;;56.08;32.17;;;;;;;0.74;84.96;98689.72;2103196;84;21281;-89
2021/01/04 07:25:07;;;;;;;53.87;31.02;;;;;;;0.66;84.88;98683.03;2096741;84;21114;-88
2021/01/04 07:28:12;;;;;;;55.03;31.07;;;;;;;0.76;85.11;98685.25;2077424;86;21280;-91
2021/01/04 07:31:15;;;;;;;58.98;32.85;;;;;;;0.81;84.78;98693.91;2076140;86;21319;-89
2021/01/04 07:34:18;;;;;;;43.13;26.85;;;;;;;0.77;84.58;98705.41;2061969;86;21780;-88
2021/01/04 07:37:20;;;;;;;40.70;26.42;;;;;;;0.68;84.23;98715.95;2064290;85;21217;-89
2021/01/04 07:40:22;;;;;;;47.55;29.35;;;;;;;0.55;84.11;98716.55;2067407;86;21332;-89
2021/01/04 07:43:23;;;;;;;35.60;21.70;;;;;;;0.48;84.59;98717.94;2066493;86;21902;-87
2021/01/04 07:46:25;;;;;;;42.08;25.88;;;;;;;0.44;84.61;98723.77;2065974;86;21372;-88
2021/01/04 07:49:26;;;;;;;42.33;26.12;;;;;;;0.40;84.77;98722.38;2065943;86;21518;-89
2021/01/04 07:52:28;;;;;;;40.10;24.37;;;;;;;0.38;84.68;98721.67;2090775;85;21797;-90
2021/01/04 07:55:29;;;;;;;38.30;22.80;;;;;;;0.35;84.83;98722.34;2094601;84;21723;-91
2021/01/04 07:58:31;;;;;;;45.08;25.57;;;;;;;0.34;85.07;98724.11;2095241;84;21162;-89
2021/01/04 08:01:32;;;;;;;41.23;23.35;;;;;;;0.35;85.30;98722.34;2096286;84;21320;-88
2021/01/04 08:04:34;;;;;;;44.63;25.82;;;;;;;0.36;85.42;98723.52;2096087;84;21354;-89
2021/01/04 08:07:35;;;;;;;43.80;25.27;;;;;;;0.31;85.59;98729.97;2096008;84;21643;-90
2021/01/04 08:10:40;;;;;;;44.75;25.00;;;;;;;0.41;85.85;98724.01;2096008;85;21343;-90
2021/01/04 08:13:42;;;;;;;41.53;24.77;;;;;;;0.49;85.99;98730.70;2090661;85;21324;-89
2021/01/04 08:16:43;;;;;;;49.80;28.10;;;;;;;0.55;86.09;98726.84;2075117;86;21161;-90
2021/01/04 08:19:45;;;;;;;45.50;27.13;;;;;;;0.67;85.85;98723.33;2075134;86;21162;-90
2021/01/04 08:22:47;;;;;;;35.58;22.05;;;;;;;0.85;85.75;98731.42;2075100;86;21143;-89
2021/01/04 08:25:48;;;;;;;42.93;23.67;;;;;;;1.00;85.96;98740.53;2071969;85;21648;-89
2021/01/04 08:28:50;;;;;;;39.25;24.25;;;;;;;0.99;85.78;98745.81;2072624;85;21312;-86
2021/01/04 08:31:51;;;;;;;50.65;27.48;;;;;;;1.01;85.74;98747.83;2070212;85;21335;-86
2021/01/04 08:34:53;;;;;;;44.23;25.40;;;;;;;1.08;85.90;98735.61;2068791;85;21319;-87
2021/01/04 08:37:54;;;;;;;41.85;26.45;;;;;;;1.20;85.78;98735.61;2100962;84;21158;-87
2021/01/04 08:40:56;;;;;;;45.38;28.27;;;;;;;1.35;85.63;98735.68;2086864;85;21284;-88
2021/01/04 08:44:01;;;;;;;36.77;22.87;;;;;;;1.55;85.59;98732.34;2093725;85;21804;-88
2021/01/04 08:47:02;;;;;;;42.20;25.05;;;;;;;1.69;85.12;98741.58;2071606;86;21602;-89
2021/01/04 08:50:04;;;;;;;42.83;26.25;;;;;;;1.77;85.05;98735.80;2072630;86;21316;-93
2021/01/04 08:53:06;;;;;;;45.50;27.65;;;;;;;1.94;85.14;98735.27;2073929;85;21352;-92
2021/01/04 08:56:07;;;;;;;39.58;25.15;;;;;;;2.19;84.98;98734.88;2047866;85;21194;-92
2021/01/04 08:59:09;;;;;;;48.60;30.70;;;;;;;2.27;84.23;98733.78;2072268;86;21589;-92
2021/01/04 09:05:21;;;;;;;57.78;33.53;;;;;;;2.41;84.07;98727.96;2127741;78;21184;-81
2021/01/04 09:08:23;;;;;;;50.65;31.30;;;;;;;2.58;84.33;98730.44;2113727;84;21606;-81
2021/01/04 09:11:24;;;;;;;39.83;25.35;;;;;;;2.88;84.30;98725.25;2106856;84;21304;-84
2021/01/04 09:14:26;;;;;;;39.25;27.80;;;;;;;2.99;83.77;98721.75;2104151;85;21144;-81
2021/01/04 09:17:27;;;;;;;45.95;27.45;;;;;;;3.00;83.54;98713.85;2104529;85;21306;-80
2021/01/04 09:20:29;;;;;;;43.15;27.50;;;;;;;2.99;83.37;98719.98;2104541;85;21313;-81
2021/01/04 09:23:31;;;;;;;42.15;27.70;;;;;;;2.93;83.17;98724.88;2078901;85;21226;-80
2021/01/04 09:26:33;;;;;;;47.33;29.00;;;;;;;2.92;83.05;98728.38;2069144;86;21305;-80
2021/01/04 09:29:35;;;;;;;36.88;24.15;;;;;;;2.84;83.39;98709.66;2069017;85;21158;-80
2021/01/04 09:32:37;;;;;;;49.33;27.77;;;;;;;2.78;83.31;98712.28;2069054;86;21766;-80
2021/01/04 09:35:39;;;;;;;50.35;31.35;;;;;;;2.74;83.45;98708.78;2069035;86;21602;-81
2021/01/04 09:38:41;;;;;;;38.28;22.22;;;;;;;2.80;83.71;98709.09;2069142;86;21588;-81
2021/01/04 09:41:42;;;;;;;40.80;24.12;;;;;;;2.87;83.42;98710.69;2069281;85;21181;-80
2021/01/04 09:44:44;;;;;;;31.00;18.67;;;;;;;2.92;83.60;98707.22;2069147;85;21779;-77
2021/01/04 09:47:45;;;;;;;38.60;24.72;;;;;;;3.01;83.38;98692.20;2076896;85;21327;-78
2021/01/04 09:50:47;;;;;;;44.13;25.90;;;;;;;2.99;83.33;98702.34;2067840;86;21169;-82
2021/01/04 09:53:49;;;;;;;35.60;21.90;;;;;;;2.99;83.52;98702.34;2067573;86;21134;-79
2021/01/04 09:56:50;;;;;;;31.75;20.50;;;;;;;3.03;83.35;98698.09;2067988;86;21355;-79
2021/01/04 09:59:52;;;;;;;44.10;25.62;;;;;;;3.08;83.49;98688.63;2092106;85;21281;-80
2021/01/04 10:02:54;;;;;;;38.90;24.05;;;;;;;3.17;83.71;98684.42;2104350;85;21753;-79
2021/01/04 10:05:56;;;;;;;33.28;20.88;;;;;;;3.22;83.87;98674.02;2103901;85;21337;-79
2021/01/04 10:08:59;;;;;;;41.20;25.27;;;;;;;3.27;83.59;98674.42;2104427;85;21317;-79
2021/01/04 10:12:00;;;;;;;33.38;23.60;;;;;;;3.37;83.61;98679.61;2104371;85;21322;-79
2021/01/04 10:15:03;;;;;;;36.93;23.75;;;;;;;3.41;83.47;98677.11;2104409;85;21348;-78
2021/01/04 10:18:05;;;;;;;35.92;23.10;;;;;;;3.46;83.56;98671.03;2104454;85;21166;-79
2021/01/04 10:21:06;;;;;;;38.35;27.42;;;;;;;3.47;83.48;98661.50;2104313;85;21183;-80
2021/01/04 10:24:07;;;;;;;41.37;27.07;;;;;;;3.48;83.51;98667.04;2104288;85;21643;-80
2021/01/04 10:27:09;;;;;;;43.70;26.95;;;;;;;3.52;83.75;98671.80;2104363;85;21252;-80
2021/01/04 10:30:11;;;;;;;47.78;31.07;;;;;;;3.54;83.71;98676.36;2094380;85;21288;-80
2021/01/04 10:33:12;;;;;;;48.02;31.37;;;;;;;3.57;83.88;98664.45;2102759;85;21270;-81
2021/01/04 10:36:14;;;;;;;52.98;33.20;;;;;;;3.68;83.98;98661.72;2099108;85;21793;-81
2021/01/04 10:39:15;;;;;;;53.75;34.08;;;;;;;3.79;84.01;98659.45;2069097;85;21197;-80
2021/01/04 10:42:17;;;;;;;61.50;36.25;;;;;;;3.89;84.11;98655.08;2068989;86;21752;-80
2021/01/04 10:45:19;;;;;;;53.48;32.58;;;;;;;3.96;83.95;98652.28;2069009;86;21292;-80
2021/01/04 10:48:20;;;;;;;61.95;35.63;;;;;;;4.09;83.90;98649.38;2069040;85;21304;-81
2021/01/04 10:51:22;;;;;;;56.02;34.30;;;;;;;4.18;83.92;98646.43;2069126;85;21352;-77
2021/01/04 10:54:24;;;;;;;56.00;35.28;;;;;;;4.21;83.76;98646.98;2069538;85;21205;-77
2021/01/04 10:57:25;;;;;;;60.90;35.38;;;;;;;4.29;83.92;98650.14;2069131;86;21189;-79
2021/01/04 11:00:27;;;;;;;58.75;35.90;;;;;;;4.35;83.76;98654.77;2099594;85;22334;-79
2021/01/04 11:03:29;;;;;;;53.55;33.30;;;;;;;4.49;83.88;98662.11;2104429;85;21326;-79
2021/01/04 11:06:30;;;;;;;53.78;34.27;;;;;;;4.59;83.51;98659.95;2078438;85;21206;-79
2021/01/04 11:09:32;;;;;;;67.65;37.70;;;;;;;4.69;83.79;98651.66;2078162;86;21197;-78
2021/01/04 11:12:34;;;;;;;57.58;34.25;;;;;;;4.81;83.86;98646.12;2078157;86;21708;-79
2021/01/04 11:15:35;;;;;;;63.98;38.30;;;;;;;4.89;83.45;98641.51;2078018;84;22166;-78
2021/01/04 11:18:37;;;;;;;82.67;46.18;;;;;;;4.86;83.13;98635.32;2094290;84;21252;-80
2021/01/04 11:21:38;;;;;;;93.42;52.93;;;;;;;4.86;83.39;98628.84;2079518;86;21783;-79
2021/01/04 11:24:40;;;;;;;94.55;53.33;;;;;;;4.89;83.04;98632.42;2079135;86;21192;-79
2021/01/04 11:27:42;;;;;;;86.90;45.67;;;;;;;4.90;83.15;98631.95;2078398;86;21196;-79
2021/01/04 11:30:47;;;;;;;123.70;63.08;;;;;;;4.87;83.14;98627.05;2078110;86;21165;-78
2021/01/04 11:33:48;;;;;;;98.85;52.15;;;;;;;4.86;83.32;98618.45;2078103;86;21209;-78
2021/01/04 11:36:50;;;;;;;110.90;54.13;;;;;;;4.83;83.21;98615.65;2078154;86;21644;-78
2021/01/04 11:39:51;;;;;;;173.05;81.60;;;;;;;4.77;83.25;98631.00;2078562;86;21189;-79
2021/01/04 11:42:53;;;;;;;138.60;74.92;;;;;;;4.69;83.25;98641.28;2078197;86;21150;-80
2021/01/04 11:45:54;;;;;;;145.50;71.85;;;;;;;4.66;83.35;98638.47;2078801;86;21768;-77
2021/01/04 11:48:57;;;;;;;104.23;55.48;;;;;;;4.63;83.57;98642.66;2078341;86;21807;-78
2021/01/04 11:51:58;;;;;;;86.63;47.23;;;;;;;4.69;83.68;98638.68;2078380;86;21209;-79
2021/01/04 11:55:00;;;;;;;76.12;44.15;;;;;;;4.76;83.66;98636.67;2078116;86;21214;-79
2021/01/04 11:58:02;;;;;;;77.45;42.30;;;;;;;4.80;83.40;98630.70;2077973;86;21179;-79
2021/01/04 12:01:03;;;;;;;81.10;44.05;;;;;;;4.83;83.15;98629.10;2078147;86;21195;-79
2021/01/04 12:04:05;;;;;;;76.57;43.68;;;;;;;4.89;82.93;98630.31;2080612;85;21203;-79
2021/01/04 12:07:07;;;;;;;90.28;49.77;;;;;;;4.98;82.88;98630.73;2105721;84;21306;-79
2021/01/04 12:10:09;;;;;;;83.07;48.05;;;;;;;5.08;83.02;98639.28;2093159;84;21146;-79
2021/01/04 12:13:11;;;;;;;82.88;42.67;;;;;;;5.20;82.64;98635.98;2112545;84;21388;-80
2021/01/04 12:16:12;;;;;;;71.97;40.83;;;;;;;5.31;82.23;98633.20;2119620;84;21192;-79
2021/01/04 12:19:14;;;;;;;74.82;42.20;;;;;;;5.34;82.17;98635.00;2119690;84;21131;-87
2021/01/04 12:22:16;;;;;;;76.02;42.70;;;;;;;5.34;81.92;98637.59;2119601;84;21148;-79
2021/01/04 12:25:18;;;;;;;64.87;38.73;;;;;;;5.38;81.95;98640.70;2120015;84;21176;-79
2021/01/04 12:28:20;;;;;;;78.85;45.55;;;;;;;5.48;81.75;98638.84;2119606;84;21191;-80
2021/01/04 12:31:23;;;;;;;71.22;41.45;;;;;;;5.63;82.17;98639.96;2109884;84;21147;-80
2021/01/04 12:34:24;;;;;;;69.72;38.23;;;;;;;5.79;81.85;98649.67;2082127;84;21166;-80
2021/01/04 12:37:26;;;;;;;77.17;43.10;;;;;;;5.82;81.24;98649.36;2099908;84;21135;-79
2021/01/04 12:40:29;;;;;;;83.42;44.15;;;;;;;5.73;81.29;98642.95;2115476;84;21274;-81
2021/01/04 12:43:31;;;;;;;73.22;41.40;;;;;;;5.68;81.44;98648.62;2069940;86;21206;-85
2021/01/04 12:46:32;;;;;;;77.70;42.45;;;;;;;5.68;81.55;98644.23;2102460;84;21228;-79
2021/01/04 12:49:34;;;;;;;67.47;37.48;;;;;;;5.73;81.30;98650.27;2082450;85;21199;-80
2021/01/04 12:52:35;;;;;;;55.33;31.00;;;;;;;5.68;81.17;98641.64;2104741;84;21336;-78
2021/01/04 12:55:37;;;;;;;53.28;33.92;;;;;;;5.59;80.86;98639.13;2106521;84;21154;-79
2021/01/04 12:58:42;;;;;;;57.00;31.77;;;;;;;5.39;80.94;98644.48;2104675;85;21287;-79
2021/01/04 13:01:42;;;;;;;59.38;31.70;;;;;;;5.22;81.08;98646.58;2097143;85;21163;-79
2021/01/04 13:04:43;;;;;;;59.03;34.95;;;;;;;5.01;81.31;98643.41;2098784;84;21185;-79
2021/01/04 13:07:45;;;;;;;61.05;32.88;;;;;;;4.83;81.46;98636.41;2077799;86;21669;-78
2021/01/04 13:10:47;;;;;;;63.17;33.13;;;;;;;4.73;81.78;98636.94;2077245;86;21292;-82
2021/01/04 13:13:49;;;;;;;57.05;33.48;;;;;;;4.61;82.05;98636.80;2077764;86;21308;-79
2021/01/04 13:16:51;;;;;;;63.90;36.50;;;;;;;4.56;82.31;98642.41;2076067;85;21669;-80
2021/01/04 13:19:52;;;;;;;58.10;32.78;;;;;;;4.48;82.40;98646.22;2077689;86;21207;-78
2021/01/04 13:22:54;;;;;;;54.88;32.67;;;;;;;4.43;82.42;98643.70;2040467;87;21210;-80
2021/01/04 13:25:55;;;;;;;56.42;33.48;;;;;;;4.34;82.68;98640.66;2039872;87;21729;-82
2021/01/04 13:28:57;;;;;;;58.48;33.95;;;;;;;4.22;82.98;98649.91;2038935;87;21165;-84
2021/01/04 13:31:59;;;;;;;69.50;37.55;;;;;;;4.15;83.14;98648.83;2077938;85;21305;-82
2021/01/04 13:35:02;;;;;;;83.62;44.50;;;;;;;4.09;83.20;98644.67;2030337;87;21166;-84
2021/01/04 13:38:05;;;;;;;72.15;41.28;;;;;;;4.04;83.45;98649.48;2005220;87;21161;-84
2021/01/04 13:41:06;;;;;;;69.85;42.23;;;;;;;4.05;83.45;98647.22;2076753;85;21320;-83
2021/01/04 13:44:08;;;;;;;89.62;50.73;;;;;;;4.01;83.59;98650.55;2076124;86;21313;-79
2021/01/04 13:47:09;;;;;;;73.70;42.05;;;;;;;3.92;83.62;98652.20;2075221;85;21343;-79
2021/01/04 13:50:11;;;;;;;86.02;46.08;;;;;;;3.85;83.55;98655.03;2075495;86;21313;-80
2021/01/04 13:53:12;;;;;;;63.00;36.88;;;;;;;3.82;83.67;98659.17;2075659;86;21353;-80
2021/01/04 13:56:14;;;;;;;56.58;31.35;;;;;;;3.80;83.82;98658.50;2075982;86;21637;-79
2021/01/04 13:59:16;;;;;;;58.63;30.43;;;;;;;3.71;84.00;98654.96;2075735;86;21653;-80
2021/01/04 14:02:18;;;;;;;75.62;39.98;;;;;;;3.65;84.29;98646.44;2075838;86;21580;-80
2021/01/04 14:05:19;;;;;;;82.35;45.23;;;;;;;3.59;84.40;98644.41;2086578;84;21175;-81
2021/01/04 14:08:21;;;;;;;72.00;40.55;;;;;;;3.54;84.20;98640.11;2111382;84;21285;-82